sensor_id;sensor_type;location;lat;lon;timestamp;P1;durP1;ratioP1;P2;durP2;ratioP2
61435;SDS011;47304;47.456;19.160;2024-03-25T00:00:02;5.30;;;2.20;;
61435;SDS011;47304;47.456;19.160;2024-03-25T00:02:30;4.90;;;1.90;;
61435;SDS011;47304;47.456;19.160;2024-03-25T00:04:58;4.80;;;1.90;;
61435;SDS011;47304;47.456;19.160;2024-03-25T00:07:26;4.00;;;1.80;;
61435;SDS011;47304;47.456;19.160;2024-03-25T00:09:54;5.40;;;2.10;;
61435;SDS011;47304;47.456;19.160;2024-03-25T00:12:22;3.80;;;1.80;;
61435;SDS011;47304;47.456;19.160;2024-03-25T00:14:50;4.50;;;1.80;;
61435;SDS011;47304;47.456;19.160;2024-03-25T00:17:18;3.70;;;1.70;;
61435;SDS011;47304;47.456;19.160;2024-03-25T00:19:47;5.10;;;1.90;;
61435;SDS011;47304;47.456;19.160;2024-03-25T00:22:14;4.90;;;2.10;;
61435;SDS011;47304;47.456;19.160;2024-03-25T00:24:42;4.00;;;1.70;;
61435;SDS011;47304;47.456;19.160;2024-03-25T00:27:11;4.30;;;1.80;;
61435;SDS011;47304;47.456;19.160;2024-03-25T00:29:39;5.40;;;2.10;;
61435;SDS011;47304;47.456;19.160;2024-03-25T00:32:07;4.00;;;1.70;;
61435;SDS011;47304;47.456;19.160;2024-03-25T00:34:35;6.50;;;2.10;;
61435;SDS011;47304;47.456;19.160;2024-03-25T00:37:03;3.90;;;1.80;;
61435;SDS011;47304;47.456;19.160;2024-03-25T00:39:31;4.60;;;1.80;;
61435;SDS011;47304;47.456;19.160;2024-03-25T00:42:00;4.20;;;1.90;;
61435;SDS011;47304;47.456;19.160;2024-03-25T00:44:28;3.90;;;1.60;;
61435;SDS011;47304;47.456;19.160;2024-03-25T00:46:56;4.30;;;1.80;;
61435;SDS011;47304;47.456;19.160;2024-03-25T00:49:25;5.60;;;2.00;;
61435;SDS011;47304;47.456;19.160;2024-03-25T00:51:53;3.20;;;1.60;;
61435;SDS011;47304;47.456;19.160;2024-03-25T00:54:21;4.10;;;1.70;;
61435;SDS011;47304;47.456;19.160;2024-03-25T00:56:49;4.40;;;1.70;;
61435;SDS011;47304;47.456;19.160;2024-03-25T00:59:18;5.70;;;2.20;;
61435;SDS011;47304;47.456;19.160;2024-03-25T01:01:46;5.00;;;1.70;;
61435;SDS011;47304;47.456;19.160;2024-03-25T01:04:14;4.60;;;1.80;;
61435;SDS011;47304;47.456;19.160;2024-03-25T01:06:42;4.50;;;1.90;;
61435;SDS011;47304;47.456;19.160;2024-03-25T01:09:10;4.70;;;2.00;;
61435;SDS011;47304;47.456;19.160;2024-03-25T01:11:38;6.00;;;2.10;;
61435;SDS011;47304;47.456;19.160;2024-03-25T01:14:06;5.90;;;2.00;;
61435;SDS011;47304;47.456;19.160;2024-03-25T01:16:34;5.70;;;2.00;;
61435;SDS011;47304;47.456;19.160;2024-03-25T01:19:02;5.80;;;2.20;;
61435;SDS011;47304;47.456;19.160;2024-03-25T01:21:30;5.60;;;2.00;;
61435;SDS011;47304;47.456;19.160;2024-03-25T01:23:59;5.20;;;2.10;;
61435;SDS011;47304;47.456;19.160;2024-03-25T01:26:27;5.30;;;2.10;;
61435;SDS011;47304;47.456;19.160;2024-03-25T01:28:55;4.80;;;1.80;;
61435;SDS011;47304;47.456;19.160;2024-03-25T01:31:23;5.20;;;2.00;;
61435;SDS011;47304;47.456;19.160;2024-03-25T01:33:51;4.50;;;2.00;;
61435;SDS011;47304;47.456;19.160;2024-03-25T01:36:19;4.30;;;1.80;;
61435;SDS011;47304;47.456;19.160;2024-03-25T01:38:47;5.00;;;2.20;;
61435;SDS011;47304;47.456;19.160;2024-03-25T01:41:19;4.90;;;2.30;;
61435;SDS011;47304;47.456;19.160;2024-03-25T01:43:48;4.20;;;1.90;;
61435;SDS011;47304;47.456;19.160;2024-03-25T01:46:16;5.10;;;1.80;;
61435;SDS011;47304;47.456;19.160;2024-03-25T01:48:44;4.60;;;1.90;;
61435;SDS011;47304;47.456;19.160;2024-03-25T01:51:13;4.10;;;1.90;;
61435;SDS011;47304;47.456;19.160;2024-03-25T01:53:43;4.40;;;2.00;;
61435;SDS011;47304;47.456;19.160;2024-03-25T01:56:12;5.40;;;2.20;;
61435;SDS011;47304;47.456;19.160;2024-03-25T01:58:42;4.40;;;1.90;;
61435;SDS011;47304;47.456;19.160;2024-03-25T02:01:11;3.30;;;1.60;;
61435;SDS011;47304;47.456;19.160;2024-03-25T02:03:39;3.40;;;1.70;;
61435;SDS011;47304;47.456;19.160;2024-03-25T02:06:09;4.70;;;1.70;;
61435;SDS011;47304;47.456;19.160;2024-03-25T02:08:41;3.30;;;1.70;;
61435;SDS011;47304;47.456;19.160;2024-03-25T02:11:10;5.60;;;1.80;;
61435;SDS011;47304;47.456;19.160;2024-03-25T02:13:39;3.50;;;1.50;;
61435;SDS011;47304;47.456;19.160;2024-03-25T02:16:07;4.30;;;1.70;;
61435;SDS011;47304;47.456;19.160;2024-03-25T02:18:35;4.10;;;2.00;;
61435;SDS011;47304;47.456;19.160;2024-03-25T02:21:03;4.80;;;2.10;;
61435;SDS011;47304;47.456;19.160;2024-03-25T02:23:33;4.40;;;1.80;;
61435;SDS011;47304;47.456;19.160;2024-03-25T02:26:01;4.50;;;2.00;;
61435;SDS011;47304;47.456;19.160;2024-03-25T02:28:29;5.80;;;2.40;;
61435;SDS011;47304;47.456;19.160;2024-03-25T02:30:58;5.00;;;2.20;;
61435;SDS011;47304;47.456;19.160;2024-03-25T02:33:26;6.90;;;2.10;;
61435;SDS011;47304;47.456;19.160;2024-03-25T02:35:54;4.80;;;2.20;;
61435;SDS011;47304;47.456;19.160;2024-03-25T02:38:22;6.60;;;2.30;;
61435;SDS011;47304;47.456;19.160;2024-03-25T02:40:50;4.40;;;2.00;;
61435;SDS011;47304;47.456;19.160;2024-03-25T02:43:19;6.10;;;2.10;;
61435;SDS011;47304;47.456;19.160;2024-03-25T02:45:48;5.10;;;2.20;;
61435;SDS011;47304;47.456;19.160;2024-03-25T02:48:16;6.30;;;2.30;;
61435;SDS011;47304;47.456;19.160;2024-03-25T02:50:44;5.30;;;2.20;;
61435;SDS011;47304;47.456;19.160;2024-03-25T02:53:12;4.60;;;2.10;;
61435;SDS011;47304;47.456;19.160;2024-03-25T02:55:40;4.70;;;2.00;;
61435;SDS011;47304;47.456;19.160;2024-03-25T02:58:08;6.20;;;2.40;;
61435;SDS011;47304;47.456;19.160;2024-03-25T03:00:36;4.60;;;2.00;;
61435;SDS011;47304;47.456;19.160;2024-03-25T03:03:04;6.40;;;2.10;;
61435;SDS011;47304;47.456;19.160;2024-03-25T03:05:33;5.20;;;2.10;;
61435;SDS011;47304;47.456;19.160;2024-03-25T03:08:01;5.20;;;2.00;;
61435;SDS011;47304;47.456;19.160;2024-03-25T03:10:29;4.20;;;1.80;;
61435;SDS011;47304;47.456;19.160;2024-03-25T03:12:57;6.00;;;2.20;;
61435;SDS011;47304;47.456;19.160;2024-03-25T03:15:25;6.00;;;2.10;;
61435;SDS011;47304;47.456;19.160;2024-03-25T03:17:52;5.30;;;2.30;;
61435;SDS011;47304;47.456;19.160;2024-03-25T03:20:20;4.70;;;2.10;;
61435;SDS011;47304;47.456;19.160;2024-03-25T03:22:48;5.60;;;2.40;;
61435;SDS011;47304;47.456;19.160;2024-03-25T03:25:16;5.60;;;2.20;;
61435;SDS011;47304;47.456;19.160;2024-03-25T03:27:44;6.10;;;2.30;;
61435;SDS011;47304;47.456;19.160;2024-03-25T03:30:12;8.00;;;2.30;;
61435;SDS011;47304;47.456;19.160;2024-03-25T03:32:40;5.40;;;2.10;;
61435;SDS011;47304;47.456;19.160;2024-03-25T03:35:09;4.50;;;2.30;;
61435;SDS011;47304;47.456;19.160;2024-03-25T03:37:37;5.90;;;2.30;;
61435;SDS011;47304;47.456;19.160;2024-03-25T03:40:05;5.00;;;2.20;;
61435;SDS011;47304;47.456;19.160;2024-03-25T03:42:35;5.40;;;2.30;;
61435;SDS011;47304;47.456;19.160;2024-03-25T03:45:03;8.30;;;2.50;;
61435;SDS011;47304;47.456;19.160;2024-03-25T03:47:33;8.30;;;2.40;;
61435;SDS011;47304;47.456;19.160;2024-03-25T03:50:01;6.30;;;2.50;;
61435;SDS011;47304;47.456;19.160;2024-03-25T03:52:30;5.40;;;2.30;;
61435;SDS011;47304;47.456;19.160;2024-03-25T03:54:58;6.50;;;2.30;;
61435;SDS011;47304;47.456;19.160;2024-03-25T03:57:25;7.40;;;2.60;;
61435;SDS011;47304;47.456;19.160;2024-03-25T03:59:53;5.40;;;2.20;;
61435;SDS011;47304;47.456;19.160;2024-03-25T04:02:22;5.50;;;2.10;;
61435;SDS011;47304;47.456;19.160;2024-03-25T04:04:51;6.70;;;2.40;;
61435;SDS011;47304;47.456;19.160;2024-03-25T04:07:18;6.70;;;2.10;;
61435;SDS011;47304;47.456;19.160;2024-03-25T04:09:47;5.00;;;2.20;;
61435;SDS011;47304;47.456;19.160;2024-03-25T04:12:15;5.90;;;2.30;;
61435;SDS011;47304;47.456;19.160;2024-03-25T04:14:43;5.70;;;2.50;;
61435;SDS011;47304;47.456;19.160;2024-03-25T04:17:12;7.40;;;2.30;;
61435;SDS011;47304;47.456;19.160;2024-03-25T04:19:40;5.10;;;1.80;;
61435;SDS011;47304;47.456;19.160;2024-03-25T04:22:08;4.30;;;1.70;;
61435;SDS011;47304;47.456;19.160;2024-03-25T04:24:36;4.50;;;1.80;;
61435;SDS011;47304;47.456;19.160;2024-03-25T04:27:04;3.60;;;1.60;;
61435;SDS011;47304;47.456;19.160;2024-03-25T04:29:32;3.40;;;1.60;;
61435;SDS011;47304;47.456;19.160;2024-03-25T04:32:00;5.10;;;1.70;;
61435;SDS011;47304;47.456;19.160;2024-03-25T04:34:28;4.40;;;1.80;;
61435;SDS011;47304;47.456;19.160;2024-03-25T04:36:56;5.90;;;1.90;;
61435;SDS011;47304;47.456;19.160;2024-03-25T04:39:24;3.80;;;1.60;;
61435;SDS011;47304;47.456;19.160;2024-03-25T04:41:52;4.10;;;1.60;;
61435;SDS011;47304;47.456;19.160;2024-03-25T04:44:20;4.80;;;1.70;;
61435;SDS011;47304;47.456;19.160;2024-03-25T04:46:48;4.80;;;1.90;;
61435;SDS011;47304;47.456;19.160;2024-03-25T04:49:16;4.50;;;1.80;;
61435;SDS011;47304;47.456;19.160;2024-03-25T04:51:44;8.00;;;2.10;;
61435;SDS011;47304;47.456;19.160;2024-03-25T04:54:12;5.70;;;1.90;;
61435;SDS011;47304;47.456;19.160;2024-03-25T04:56:41;4.70;;;1.90;;
61435;SDS011;47304;47.456;19.160;2024-03-25T04:59:09;4.80;;;1.90;;
61435;SDS011;47304;47.456;19.160;2024-03-25T05:01:37;4.80;;;1.80;;
61435;SDS011;47304;47.456;19.160;2024-03-25T05:04:05;4.10;;;1.90;;
61435;SDS011;47304;47.456;19.160;2024-03-25T05:06:33;4.30;;;1.80;;
61435;SDS011;47304;47.456;19.160;2024-03-25T05:09:01;4.30;;;1.70;;
61435;SDS011;47304;47.456;19.160;2024-03-25T05:11:29;4.70;;;2.20;;
61435;SDS011;47304;47.456;19.160;2024-03-25T05:13:57;5.40;;;1.80;;
61435;SDS011;47304;47.456;19.160;2024-03-25T05:16:26;4.20;;;1.80;;
61435;SDS011;47304;47.456;19.160;2024-03-25T05:18:53;4.50;;;1.80;;
61435;SDS011;47304;47.456;19.160;2024-03-25T05:21:21;4.30;;;1.70;;
61435;SDS011;47304;47.456;19.160;2024-03-25T05:23:49;9.20;;;2.10;;
61435;SDS011;47304;47.456;19.160;2024-03-25T05:26:18;4.40;;;1.90;;
61435;SDS011;47304;47.456;19.160;2024-03-25T05:28:46;4.30;;;1.80;;
61435;SDS011;47304;47.456;19.160;2024-03-25T05:31:18;4.90;;;1.70;;
61435;SDS011;47304;47.456;19.160;2024-03-25T05:33:46;3.60;;;1.70;;
61435;SDS011;47304;47.456;19.160;2024-03-25T05:36:14;3.80;;;1.80;;
61435;SDS011;47304;47.456;19.160;2024-03-25T05:38:42;5.90;;;2.30;;
61435;SDS011;47304;47.456;19.160;2024-03-25T05:41:12;5.90;;;2.30;;
61435;SDS011;47304;47.456;19.160;2024-03-25T05:43:40;5.30;;;2.10;;
61435;SDS011;47304;47.456;19.160;2024-03-25T05:46:08;5.70;;;2.00;;
61435;SDS011;47304;47.456;19.160;2024-03-25T05:48:36;5.40;;;2.20;;
61435;SDS011;47304;47.456;19.160;2024-03-25T05:51:05;5.20;;;2.00;;
61435;SDS011;47304;47.456;19.160;2024-03-25T05:53:33;3.80;;;1.90;;
61435;SDS011;47304;47.456;19.160;2024-03-25T05:56:01;4.80;;;2.00;;
61435;SDS011;47304;47.456;19.160;2024-03-25T05:58:30;6.00;;;2.10;;
61435;SDS011;47304;47.456;19.160;2024-03-25T06:00:58;4.80;;;2.00;;
61435;SDS011;47304;47.456;19.160;2024-03-25T06:03:26;5.50;;;2.10;;
61435;SDS011;47304;47.456;19.160;2024-03-25T06:05:55;4.90;;;2.00;;
61435;SDS011;47304;47.456;19.160;2024-03-25T06:08:23;5.20;;;2.10;;
61435;SDS011;47304;47.456;19.160;2024-03-25T06:10:51;5.30;;;2.40;;
61435;SDS011;47304;47.456;19.160;2024-03-25T06:13:19;5.20;;;2.00;;
61435;SDS011;47304;47.456;19.160;2024-03-25T06:15:47;4.40;;;1.90;;
61435;SDS011;47304;47.456;19.160;2024-03-25T06:18:15;4.90;;;2.10;;
61435;SDS011;47304;47.456;19.160;2024-03-25T06:20:43;4.60;;;2.10;;
61435;SDS011;47304;47.456;19.160;2024-03-25T06:23:11;5.40;;;2.20;;
61435;SDS011;47304;47.456;19.160;2024-03-25T06:25:50;6.80;;;2.10;;
61435;SDS011;47304;47.456;19.160;2024-03-25T06:28:18;5.20;;;2.00;;
61435;SDS011;47304;47.456;19.160;2024-03-25T06:30:47;6.20;;;2.30;;
61435;SDS011;47304;47.456;19.160;2024-03-25T06:33:15;5.80;;;2.50;;
61435;SDS011;47304;47.456;19.160;2024-03-25T06:35:43;4.80;;;2.40;;
61435;SDS011;47304;47.456;19.160;2024-03-25T06:38:11;4.80;;;2.00;;
61435;SDS011;47304;47.456;19.160;2024-03-25T06:40:39;5.20;;;2.00;;
61435;SDS011;47304;47.456;19.160;2024-03-25T06:43:07;4.30;;;1.90;;
61435;SDS011;47304;47.456;19.160;2024-03-25T06:45:36;5.10;;;2.20;;
61435;SDS011;47304;47.456;19.160;2024-03-25T06:48:04;5.20;;;2.00;;
61435;SDS011;47304;47.456;19.160;2024-03-25T06:50:33;5.60;;;2.10;;
61435;SDS011;47304;47.456;19.160;2024-03-25T06:53:01;5.40;;;2.10;;
61435;SDS011;47304;47.456;19.160;2024-03-25T06:55:29;8.60;;;2.60;;
61435;SDS011;47304;47.456;19.160;2024-03-25T06:57:57;5.00;;;2.10;;
61435;SDS011;47304;47.456;19.160;2024-03-25T07:00:25;7.70;;;2.90;;
61435;SDS011;47304;47.456;19.160;2024-03-25T07:02:53;5.70;;;2.50;;
61435;SDS011;47304;47.456;19.160;2024-03-25T07:05:22;6.20;;;2.30;;
61435;SDS011;47304;47.456;19.160;2024-03-25T07:07:50;5.80;;;2.30;;
61435;SDS011;47304;47.456;19.160;2024-03-25T07:10:18;5.30;;;2.10;;
61435;SDS011;47304;47.456;19.160;2024-03-25T07:12:46;5.00;;;2.00;;
61435;SDS011;47304;47.456;19.160;2024-03-25T07:15:14;6.10;;;2.40;;
61435;SDS011;47304;47.456;19.160;2024-03-25T07:17:42;5.40;;;2.20;;
61435;SDS011;47304;47.456;19.160;2024-03-25T07:20:11;5.70;;;2.40;;
61435;SDS011;47304;47.456;19.160;2024-03-25T07:22:39;5.00;;;2.50;;
61435;SDS011;47304;47.456;19.160;2024-03-25T07:25:07;6.10;;;2.10;;
61435;SDS011;47304;47.456;19.160;2024-03-25T07:27:35;4.90;;;2.00;;
61435;SDS011;47304;47.456;19.160;2024-03-25T07:30:04;4.60;;;1.70;;
61435;SDS011;47304;47.456;19.160;2024-03-25T07:32:34;4.90;;;2.00;;
61435;SDS011;47304;47.456;19.160;2024-03-25T07:35:02;5.10;;;2.10;;
61435;SDS011;47304;47.456;19.160;2024-03-25T07:37:31;5.30;;;2.20;;
61435;SDS011;47304;47.456;19.160;2024-03-25T07:39:59;4.50;;;2.00;;
61435;SDS011;47304;47.456;19.160;2024-03-25T07:42:27;5.00;;;2.10;;
61435;SDS011;47304;47.456;19.160;2024-03-25T07:44:55;5.10;;;1.90;;
61435;SDS011;47304;47.456;19.160;2024-03-25T07:47:23;5.10;;;2.10;;
61435;SDS011;47304;47.456;19.160;2024-03-25T07:49:51;4.90;;;1.90;;
61435;SDS011;47304;47.456;19.160;2024-03-25T07:52:19;4.10;;;2.00;;
61435;SDS011;47304;47.456;19.160;2024-03-25T07:54:48;4.10;;;2.00;;
61435;SDS011;47304;47.456;19.160;2024-03-25T07:57:15;5.40;;;2.10;;
61435;SDS011;47304;47.456;19.160;2024-03-25T07:59:44;7.00;;;2.20;;
61435;SDS011;47304;47.456;19.160;2024-03-25T08:02:12;5.80;;;2.00;;
61435;SDS011;47304;47.456;19.160;2024-03-25T08:04:40;3.40;;;1.80;;
61435;SDS011;47304;47.456;19.160;2024-03-25T08:07:08;5.80;;;2.10;;
61435;SDS011;47304;47.456;19.160;2024-03-25T08:09:36;3.80;;;1.70;;
61435;SDS011;47304;47.456;19.160;2024-03-25T08:12:05;5.00;;;2.00;;
61435;SDS011;47304;47.456;19.160;2024-03-25T08:14:34;4.00;;;1.80;;
61435;SDS011;47304;47.456;19.160;2024-03-25T08:17:02;4.00;;;1.80;;
61435;SDS011;47304;47.456;19.160;2024-03-25T08:19:30;3.80;;;1.90;;
61435;SDS011;47304;47.456;19.160;2024-03-25T08:21:58;6.40;;;2.30;;
61435;SDS011;47304;47.456;19.160;2024-03-25T08:24:26;5.60;;;2.80;;
61435;SDS011;47304;47.456;19.160;2024-03-25T08:26:54;5.50;;;2.00;;
61435;SDS011;47304;47.456;19.160;2024-03-25T08:29:22;4.00;;;1.60;;
61435;SDS011;47304;47.456;19.160;2024-03-25T08:31:51;5.40;;;2.20;;
61435;SDS011;47304;47.456;19.160;2024-03-25T08:34:19;6.50;;;2.40;;
61435;SDS011;47304;47.456;19.160;2024-03-25T08:36:47;5.70;;;2.40;;
61435;SDS011;47304;47.456;19.160;2024-03-25T08:39:15;5.90;;;2.50;;
61435;SDS011;47304;47.456;19.160;2024-03-25T08:41:43;5.80;;;2.00;;
61435;SDS011;47304;47.456;19.160;2024-03-25T08:44:12;5.50;;;2.30;;
61435;SDS011;47304;47.456;19.160;2024-03-25T08:46:40;5.10;;;2.20;;
61435;SDS011;47304;47.456;19.160;2024-03-25T08:49:08;4.70;;;2.00;;
61435;SDS011;47304;47.456;19.160;2024-03-25T08:51:36;6.60;;;2.40;;
61435;SDS011;47304;47.456;19.160;2024-03-25T08:54:04;3.80;;;2.00;;
61435;SDS011;47304;47.456;19.160;2024-03-25T08:56:32;5.20;;;2.10;;
61435;SDS011;47304;47.456;19.160;2024-03-25T08:59:00;4.00;;;1.90;;
61435;SDS011;47304;47.456;19.160;2024-03-25T09:01:28;4.90;;;2.10;;
61435;SDS011;47304;47.456;19.160;2024-03-25T09:03:56;4.20;;;2.00;;
61435;SDS011;47304;47.456;19.160;2024-03-25T09:06:24;5.40;;;2.20;;
61435;SDS011;47304;47.456;19.160;2024-03-25T09:08:53;6.30;;;2.00;;
61435;SDS011;47304;47.456;19.160;2024-03-25T09:11:21;6.40;;;2.30;;
61435;SDS011;47304;47.456;19.160;2024-03-25T09:13:49;5.60;;;2.20;;
61435;SDS011;47304;47.456;19.160;2024-03-25T09:16:18;4.40;;;2.00;;
61435;SDS011;47304;47.456;19.160;2024-03-25T09:18:46;5.80;;;2.40;;
61435;SDS011;47304;47.456;19.160;2024-03-25T09:21:14;4.70;;;1.80;;
61435;SDS011;47304;47.456;19.160;2024-03-25T09:23:43;3.60;;;1.80;;
61435;SDS011;47304;47.456;19.160;2024-03-25T09:26:11;4.70;;;1.80;;
61435;SDS011;47304;47.456;19.160;2024-03-25T09:28:39;5.10;;;2.00;;
61435;SDS011;47304;47.456;19.160;2024-03-25T09:31:07;5.50;;;2.10;;
61435;SDS011;47304;47.456;19.160;2024-03-25T09:33:35;5.10;;;2.10;;
61435;SDS011;47304;47.456;19.160;2024-03-25T09:36:04;4.40;;;1.90;;
61435;SDS011;47304;47.456;19.160;2024-03-25T09:38:32;3.80;;;1.90;;
61435;SDS011;47304;47.456;19.160;2024-03-25T09:41:00;4.70;;;1.90;;
61435;SDS011;47304;47.456;19.160;2024-03-25T09:43:30;4.90;;;2.10;;
61435;SDS011;47304;47.456;19.160;2024-03-25T09:46:03;4.90;;;1.80;;
61435;SDS011;47304;47.456;19.160;2024-03-25T09:48:32;4.50;;;2.00;;
61435;SDS011;47304;47.456;19.160;2024-03-25T09:51:00;4.90;;;2.00;;
61435;SDS011;47304;47.456;19.160;2024-03-25T09:53:30;6.10;;;1.90;;
61435;SDS011;47304;47.456;19.160;2024-03-25T09:55:58;5.10;;;2.10;;
61435;SDS011;47304;47.456;19.160;2024-03-25T09:58:26;4.80;;;2.10;;
61435;SDS011;47304;47.456;19.160;2024-03-25T10:00:56;3.80;;;1.70;;
61435;SDS011;47304;47.456;19.160;2024-03-25T10:03:24;4.00;;;1.90;;
61435;SDS011;47304;47.456;19.160;2024-03-25T10:05:53;3.50;;;1.90;;
61435;SDS011;47304;47.456;19.160;2024-03-25T10:08:21;4.00;;;1.90;;
61435;SDS011;47304;47.456;19.160;2024-03-25T10:10:49;4.40;;;2.00;;
61435;SDS011;47304;47.456;19.160;2024-03-25T10:13:18;4.60;;;2.00;;
61435;SDS011;47304;47.456;19.160;2024-03-25T10:15:48;5.90;;;2.30;;
61435;SDS011;47304;47.456;19.160;2024-03-25T10:18:16;5.40;;;2.10;;
61435;SDS011;47304;47.456;19.160;2024-03-25T10:20:48;4.40;;;2.00;;
61435;SDS011;47304;47.456;19.160;2024-03-25T10:23:16;3.90;;;1.90;;
61435;SDS011;47304;47.456;19.160;2024-03-25T10:25:48;5.40;;;1.80;;
61435;SDS011;47304;47.456;19.160;2024-03-25T10:28:18;4.00;;;1.70;;
61435;SDS011;47304;47.456;19.160;2024-03-25T10:30:46;3.80;;;1.70;;
61435;SDS011;47304;47.456;19.160;2024-03-25T10:33:14;2.70;;;1.70;;
61435;SDS011;47304;47.456;19.160;2024-03-25T10:35:43;4.40;;;1.60;;
61435;SDS011;47304;47.456;19.160;2024-03-25T10:38:16;2.40;;;1.30;;
61435;SDS011;47304;47.456;19.160;2024-03-25T10:40:44;3.90;;;1.70;;
61435;SDS011;47304;47.456;19.160;2024-03-25T10:43:14;3.70;;;1.70;;
61435;SDS011;47304;47.456;19.160;2024-03-25T10:45:47;3.00;;;1.60;;
61435;SDS011;47304;47.456;19.160;2024-03-25T10:48:17;3.00;;;1.70;;
61435;SDS011;47304;47.456;19.160;2024-03-25T10:50:51;3.40;;;1.60;;
61435;SDS011;47304;47.456;19.160;2024-03-25T10:53:21;4.10;;;1.50;;
61435;SDS011;47304;47.456;19.160;2024-03-25T10:55:52;2.70;;;1.60;;
61435;SDS011;47304;47.456;19.160;2024-03-25T10:58:22;2.90;;;1.70;;
61435;SDS011;47304;47.456;19.160;2024-03-25T11:00:50;2.90;;;1.70;;
61435;SDS011;47304;47.456;19.160;2024-03-25T11:03:20;3.90;;;1.70;;
61435;SDS011;47304;47.456;19.160;2024-03-25T11:05:48;3.40;;;1.60;;
61435;SDS011;47304;47.456;19.160;2024-03-25T11:08:16;2.50;;;1.60;;
61435;SDS011;47304;47.456;19.160;2024-03-25T11:10:45;5.80;;;1.80;;
61435;SDS011;47304;47.456;19.160;2024-03-25T11:13:13;4.20;;;1.70;;
61435;SDS011;47304;47.456;19.160;2024-03-25T11:15:44;5.10;;;1.70;;
61435;SDS011;47304;47.456;19.160;2024-03-25T11:18:14;6.10;;;1.60;;
61435;SDS011;47304;47.456;19.160;2024-03-25T11:20:43;2.60;;;1.60;;
61435;SDS011;47304;47.456;19.160;2024-03-25T11:23:12;3.40;;;1.50;;
61435;SDS011;47304;47.456;19.160;2024-03-25T11:25:41;3.40;;;1.60;;
61435;SDS011;47304;47.456;19.160;2024-03-25T11:28:09;6.30;;;2.00;;
61435;SDS011;47304;47.456;19.160;2024-03-25T11:30:37;4.90;;;1.70;;
61435;SDS011;47304;47.456;19.160;2024-03-25T11:33:06;3.60;;;1.60;;
61435;SDS011;47304;47.456;19.160;2024-03-25T11:35:37;4.00;;;1.60;;
61435;SDS011;47304;47.456;19.160;2024-03-25T11:38:05;4.10;;;1.60;;
61435;SDS011;47304;47.456;19.160;2024-03-25T11:40:34;3.50;;;1.60;;
61435;SDS011;47304;47.456;19.160;2024-03-25T11:43:03;3.30;;;1.70;;
61435;SDS011;47304;47.456;19.160;2024-03-25T11:45:31;5.70;;;1.70;;
61435;SDS011;47304;47.456;19.160;2024-03-25T11:47:59;4.40;;;1.90;;
61435;SDS011;47304;47.456;19.160;2024-03-25T11:50:28;4.00;;;1.80;;
61435;SDS011;47304;47.456;19.160;2024-03-25T11:52:56;4.90;;;2.50;;
61435;SDS011;47304;47.456;19.160;2024-03-25T11:55:24;4.00;;;1.90;;
61435;SDS011;47304;47.456;19.160;2024-03-25T11:57:55;3.30;;;1.60;;
61435;SDS011;47304;47.456;19.160;2024-03-25T12:00:24;2.30;;;1.40;;
61435;SDS011;47304;47.456;19.160;2024-03-25T12:02:52;3.00;;;1.50;;
61435;SDS011;47304;47.456;19.160;2024-03-25T12:05:20;2.40;;;1.40;;
61435;SDS011;47304;47.456;19.160;2024-03-25T12:07:48;3.90;;;1.50;;
61435;SDS011;47304;47.456;19.160;2024-03-25T12:10:16;2.80;;;1.50;;
61435;SDS011;47304;47.456;19.160;2024-03-25T12:12:44;2.70;;;1.50;;
61435;SDS011;47304;47.456;19.160;2024-03-25T12:15:13;3.90;;;1.50;;
61435;SDS011;47304;47.456;19.160;2024-03-25T12:17:41;4.40;;;1.70;;
61435;SDS011;47304;47.456;19.160;2024-03-25T12:20:10;3.70;;;1.90;;
61435;SDS011;47304;47.456;19.160;2024-03-25T12:22:38;5.50;;;2.20;;
61435;SDS011;47304;47.456;19.160;2024-03-25T12:25:07;4.70;;;2.10;;
61435;SDS011;47304;47.456;19.160;2024-03-25T12:27:35;5.30;;;2.30;;
61435;SDS011;47304;47.456;19.160;2024-03-25T12:30:05;5.40;;;2.20;;
61435;SDS011;47304;47.456;19.160;2024-03-25T12:32:37;5.00;;;2.20;;
61435;SDS011;47304;47.456;19.160;2024-03-25T12:35:10;4.50;;;2.10;;
61435;SDS011;47304;47.456;19.160;2024-03-25T12:37:38;3.80;;;1.90;;
61435;SDS011;47304;47.456;19.160;2024-03-25T12:40:09;4.00;;;2.20;;
61435;SDS011;47304;47.456;19.160;2024-03-25T12:42:38;4.20;;;2.00;;
61435;SDS011;47304;47.456;19.160;2024-03-25T12:45:07;5.40;;;2.10;;
61435;SDS011;47304;47.456;19.160;2024-03-25T12:47:35;5.00;;;2.30;;
61435;SDS011;47304;47.456;19.160;2024-03-25T12:50:04;4.20;;;2.00;;
61435;SDS011;47304;47.456;19.160;2024-03-25T12:52:33;5.30;;;2.10;;
61435;SDS011;47304;47.456;19.160;2024-03-25T12:55:01;4.60;;;2.00;;
61435;SDS011;47304;47.456;19.160;2024-03-25T12:57:29;5.20;;;2.10;;
61435;SDS011;47304;47.456;19.160;2024-03-25T12:59:57;4.80;;;2.10;;
61435;SDS011;47304;47.456;19.160;2024-03-25T13:02:25;4.20;;;2.10;;
61435;SDS011;47304;47.456;19.160;2024-03-25T13:04:53;5.20;;;1.70;;
61435;SDS011;47304;47.456;19.160;2024-03-25T13:07:22;5.00;;;2.00;;
61435;SDS011;47304;47.456;19.160;2024-03-25T13:09:50;4.00;;;1.80;;
61435;SDS011;47304;47.456;19.160;2024-03-25T13:12:18;4.50;;;2.30;;
61435;SDS011;47304;47.456;19.160;2024-03-25T13:14:46;3.70;;;1.80;;
61435;SDS011;47304;47.456;19.160;2024-03-25T13:17:15;3.80;;;1.90;;
61435;SDS011;47304;47.456;19.160;2024-03-25T13:19:43;4.20;;;1.90;;
61435;SDS011;47304;47.456;19.160;2024-03-25T13:22:11;5.10;;;2.40;;
61435;SDS011;47304;47.456;19.160;2024-03-25T13:24:39;5.30;;;2.10;;
61435;SDS011;47304;47.456;19.160;2024-03-25T13:27:07;9.40;;;4.50;;
61435;SDS011;47304;47.456;19.160;2024-03-25T13:29:35;8.10;;;3.20;;
61435;SDS011;47304;47.456;19.160;2024-03-25T13:32:03;6.20;;;2.30;;
61435;SDS011;47304;47.456;19.160;2024-03-25T13:34:31;4.60;;;1.80;;
61435;SDS011;47304;47.456;19.160;2024-03-25T13:36:59;4.50;;;2.10;;
61435;SDS011;47304;47.456;19.160;2024-03-25T13:39:27;4.70;;;2.30;;
61435;SDS011;47304;47.456;19.160;2024-03-25T13:41:55;5.30;;;2.40;;
61435;SDS011;47304;47.456;19.160;2024-03-25T13:44:24;6.60;;;2.10;;
61435;SDS011;47304;47.456;19.160;2024-03-25T13:46:52;5.00;;;2.20;;
61435;SDS011;47304;47.456;19.160;2024-03-25T13:49:20;6.40;;;2.30;;
61435;SDS011;47304;47.456;19.160;2024-03-25T13:51:47;5.80;;;2.50;;
61435;SDS011;47304;47.456;19.160;2024-03-25T13:54:16;6.00;;;2.40;;
61435;SDS011;47304;47.456;19.160;2024-03-25T13:56:44;5.10;;;2.10;;
61435;SDS011;47304;47.456;19.160;2024-03-25T13:59:12;6.20;;;2.60;;
61435;SDS011;47304;47.456;19.160;2024-03-25T14:01:40;3.80;;;1.90;;
61435;SDS011;47304;47.456;19.160;2024-03-25T14:04:08;5.10;;;2.00;;
61435;SDS011;47304;47.456;19.160;2024-03-25T14:06:36;6.10;;;2.50;;
61435;SDS011;47304;47.456;19.160;2024-03-25T14:09:05;6.70;;;3.00;;
61435;SDS011;47304;47.456;19.160;2024-03-25T14:11:33;4.90;;;2.40;;
61435;SDS011;47304;47.456;19.160;2024-03-25T14:14:01;5.10;;;2.10;;
61435;SDS011;47304;47.456;19.160;2024-03-25T14:16:29;6.50;;;2.80;;
61435;SDS011;47304;47.456;19.160;2024-03-25T14:18:57;9.20;;;4.00;;
61435;SDS011;47304;47.456;19.160;2024-03-25T14:21:30;7.40;;;3.40;;
61435;SDS011;47304;47.456;19.160;2024-03-25T14:23:58;9.80;;;5.20;;
61435;SDS011;47304;47.456;19.160;2024-03-25T14:26:26;7.60;;;3.80;;
61435;SDS011;47304;47.456;19.160;2024-03-25T14:28:54;6.30;;;2.20;;
61435;SDS011;47304;47.456;19.160;2024-03-25T14:31:22;7.30;;;2.30;;
61435;SDS011;47304;47.456;19.160;2024-03-25T14:33:51;7.60;;;3.30;;
61435;SDS011;47304;47.456;19.160;2024-03-25T14:36:19;5.50;;;2.20;;
61435;SDS011;47304;47.456;19.160;2024-03-25T14:38:47;4.90;;;2.20;;